sensor_id;sensor_type;location;lat;lon;timestamp;P1;durP1;ratioP1;P2;durP2;ratioP2
30543;SDS011;43388;46.308;4.600;2023-08-01T00:01:56;5.22;;;4.28;;
30543;SDS011;43388;46.308;4.600;2023-08-01T00:04:22;5.68;;;3.90;;
30543;SDS011;43388;46.308;4.600;2023-08-01T00:06:48;4.90;;;4.15;;
30543;SDS011;43388;46.308;4.600;2023-08-01T00:09:14;6.78;;;3.85;;
30543;SDS011;43388;46.308;4.600;2023-08-01T00:11:40;4.75;;;3.90;;
30543;SDS011;43388;46.308;4.600;2023-08-01T00:14:06;6.55;;;3.90;;
30543;SDS011;43388;46.308;4.600;2023-08-01T00:16:32;5.68;;;3.30;;
30543;SDS011;43388;46.308;4.600;2023-08-01T00:18:58;5.28;;;3.95;;
30543;SDS011;43388;46.308;4.600;2023-08-01T00:21:24;4.95;;;4.30;;
30543;SDS011;43388;46.308;4.600;2023-08-01T00:23:50;5.78;;;4.00;;
30543;SDS011;43388;46.308;4.600;2023-08-01T00:26:17;4.55;;;3.70;;
30543;SDS011;43388;46.308;4.600;2023-08-01T00:28:43;4.43;;;3.75;;
30543;SDS011;43388;46.308;4.600;2023-08-01T00:31:09;5.95;;;3.90;;
30543;SDS011;43388;46.308;4.600;2023-08-01T00:33:35;5.63;;;3.92;;
30543;SDS011;43388;46.308;4.600;2023-08-01T00:36:01;7.40;;;3.60;;
30543;SDS011;43388;46.308;4.600;2023-08-01T00:38:27;6.28;;;3.83;;
30543;SDS011;43388;46.308;4.600;2023-08-01T00:40:53;6.40;;;3.92;;
30543;SDS011;43388;46.308;4.600;2023-08-01T00:43:19;5.22;;;3.97;;
30543;SDS011;43388;46.308;4.600;2023-08-01T00:45:45;4.88;;;4.18;;
30543;SDS011;43388;46.308;4.600;2023-08-01T00:48:12;6.28;;;4.10;;
30543;SDS011;43388;46.308;4.600;2023-08-01T00:50:38;4.90;;;3.90;;
30543;SDS011;43388;46.308;4.600;2023-08-01T00:53:05;5.50;;;4.00;;
30543;SDS011;43388;46.308;4.600;2023-08-01T00:55:31;5.75;;;4.03;;
30543;SDS011;43388;46.308;4.600;2023-08-01T00:57:58;4.10;;;3.78;;
30543;SDS011;43388;46.308;4.600;2023-08-01T01:00:24;6.60;;;4.00;;
30543;SDS011;43388;46.308;4.600;2023-08-01T01:02:50;8.15;;;4.13;;
30543;SDS011;43388;46.308;4.600;2023-08-01T01:05:17;6.10;;;4.40;;
30543;SDS011;43388;46.308;4.600;2023-08-01T01:07:43;6.10;;;4.32;;
30543;SDS011;43388;46.308;4.600;2023-08-01T01:10:09;7.00;;;4.28;;
30543;SDS011;43388;46.308;4.600;2023-08-01T01:12:35;5.97;;;4.22;;
30543;SDS011;43388;46.308;4.600;2023-08-01T01:15:01;7.18;;;4.15;;
30543;SDS011;43388;46.308;4.600;2023-08-01T01:17:27;6.10;;;4.10;;
30543;SDS011;43388;46.308;4.600;2023-08-01T01:19:53;9.40;;;3.80;;
30543;SDS011;43388;46.308;4.600;2023-08-01T01:22:19;4.43;;;3.90;;
30543;SDS011;43388;46.308;4.600;2023-08-01T01:24:45;6.22;;;3.80;;
30543;SDS011;43388;46.308;4.600;2023-08-01T01:27:12;5.90;;;4.18;;
30543;SDS011;43388;46.308;4.600;2023-08-01T01:29:38;6.72;;;4.28;;
30543;SDS011;43388;46.308;4.600;2023-08-01T01:32:05;8.55;;;4.88;;
30543;SDS011;43388;46.308;4.600;2023-08-01T01:34:32;6.65;;;4.80;;
30543;SDS011;43388;46.308;4.600;2023-08-01T01:36:58;6.22;;;4.05;;
30543;SDS011;43388;46.308;4.600;2023-08-01T01:39:24;10.40;;;3.85;;
30543;SDS011;43388;46.308;4.600;2023-08-01T01:41:50;7.00;;;3.78;;
30543;SDS011;43388;46.308;4.600;2023-08-01T01:44:16;5.97;;;4.20;;
30543;SDS011;43388;46.308;4.600;2023-08-01T01:46:42;7.82;;;4.43;;
30543;SDS011;43388;46.308;4.600;2023-08-01T01:49:08;6.35;;;4.25;;
30543;SDS011;43388;46.308;4.600;2023-08-01T01:51:34;4.80;;;4.30;;
30543;SDS011;43388;46.308;4.600;2023-08-01T01:54:00;4.65;;;4.10;;
30543;SDS011;43388;46.308;4.600;2023-08-01T01:56:26;5.32;;;4.40;;
30543;SDS011;43388;46.308;4.600;2023-08-01T01:58:52;6.45;;;4.53;;
30543;SDS011;43388;46.308;4.600;2023-08-01T02:01:18;6.57;;;4.70;;
30543;SDS011;43388;46.308;4.600;2023-08-01T02:03:44;5.13;;;4.28;;
30543;SDS011;43388;46.308;4.600;2023-08-01T02:06:10;5.75;;;4.50;;
30543;SDS011;43388;46.308;4.600;2023-08-01T02:08:36;4.80;;;4.20;;
30543;SDS011;43388;46.308;4.600;2023-08-01T02:11:02;5.40;;;4.82;;
30543;SDS011;43388;46.308;4.600;2023-08-01T02:13:29;6.82;;;4.40;;
30543;SDS011;43388;46.308;4.600;2023-08-01T02:15:55;5.50;;;4.35;;
30543;SDS011;43388;46.308;4.600;2023-08-01T02:18:21;7.82;;;4.40;;
30543;SDS011;43388;46.308;4.600;2023-08-01T02:20:47;5.15;;;4.65;;
30543;SDS011;43388;46.308;4.600;2023-08-01T02:23:13;5.25;;;4.38;;
30543;SDS011;43388;46.308;4.600;2023-08-01T02:25:39;6.18;;;4.38;;
30543;SDS011;43388;46.308;4.600;2023-08-01T02:28:06;5.40;;;4.28;;
30543;SDS011;43388;46.308;4.600;2023-08-01T02:30:33;6.25;;;4.35;;
30543;SDS011;43388;46.308;4.600;2023-08-01T02:32:59;5.22;;;4.30;;
30543;SDS011;43388;46.308;4.600;2023-08-01T02:35:25;5.60;;;4.30;;
30543;SDS011;43388;46.308;4.600;2023-08-01T02:37:53;6.90;;;4.15;;
30543;SDS011;43388;46.308;4.600;2023-08-01T02:40:19;7.18;;;4.50;;
30543;SDS011;43388;46.308;4.600;2023-08-01T02:42:45;7.05;;;4.57;;
30543;SDS011;43388;46.308;4.600;2023-08-01T02:45:11;8.80;;;4.35;;
30543;SDS011;43388;46.308;4.600;2023-08-01T02:47:37;5.50;;;4.50;;
30543;SDS011;43388;46.308;4.600;2023-08-01T02:50:03;4.97;;;4.38;;
30543;SDS011;43388;46.308;4.600;2023-08-01T02:52:29;6.85;;;4.50;;
30543;SDS011;43388;46.308;4.600;2023-08-01T02:54:55;6.88;;;4.57;;
30543;SDS011;43388;46.308;4.600;2023-08-01T02:57:21;8.25;;;4.60;;
30543;SDS011;43388;46.308;4.600;2023-08-01T02:59:47;6.20;;;4.40;;
30543;SDS011;43388;46.308;4.600;2023-08-01T03:02:13;6.78;;;4.55;;
30543;SDS011;43388;46.308;4.600;2023-08-01T03:04:39;5.50;;;4.22;;
30543;SDS011;43388;46.308;4.600;2023-08-01T03:07:05;6.75;;;4.30;;
30543;SDS011;43388;46.308;4.600;2023-08-01T03:09:32;6.15;;;4.35;;
30543;SDS011;43388;46.308;4.600;2023-08-01T03:11:58;6.43;;;4.72;;
30543;SDS011;43388;46.308;4.600;2023-08-01T03:14:24;4.20;;;3.80;;
30543;SDS011;43388;46.308;4.600;2023-08-01T03:16:50;6.40;;;4.57;;
30543;SDS011;43388;46.308;4.600;2023-08-01T03:19:16;6.50;;;4.35;;
30543;SDS011;43388;46.308;4.600;2023-08-01T03:21:42;6.60;;;4.40;;
30543;SDS011;43388;46.308;4.600;2023-08-01T03:24:08;8.18;;;4.50;;
30543;SDS011;43388;46.308;4.600;2023-08-01T03:26:37;7.75;;;4.65;;
30543;SDS011;43388;46.308;4.600;2023-08-01T03:29:03;6.45;;;4.55;;
30543;SDS011;43388;46.308;4.600;2023-08-01T03:31:30;7.00;;;5.13;;
30543;SDS011;43388;46.308;4.600;2023-08-01T03:33:56;6.93;;;5.25;;
30543;SDS011;43388;46.308;4.600;2023-08-01T03:36:25;8.13;;;4.43;;
30543;SDS011;43388;46.308;4.600;2023-08-01T03:38:51;8.85;;;4.40;;
30543;SDS011;43388;46.308;4.600;2023-08-01T03:41:17;9.00;;;4.70;;
30543;SDS011;43388;46.308;4.600;2023-08-01T03:43:43;5.15;;;4.43;;
30543;SDS011;43388;46.308;4.600;2023-08-01T03:46:09;6.68;;;4.35;;
30543;SDS011;43388;46.308;4.600;2023-08-01T03:48:35;7.10;;;5.00;;
30543;SDS011;43388;46.308;4.600;2023-08-01T03:51:01;7.38;;;5.05;;
30543;SDS011;43388;46.308;4.600;2023-08-01T03:53:29;5.82;;;4.72;;
30543;SDS011;43388;46.308;4.600;2023-08-01T03:55:55;6.80;;;4.50;;
30543;SDS011;43388;46.308;4.600;2023-08-01T03:58:21;7.40;;;4.40;;
30543;SDS011;43388;46.308;4.600;2023-08-01T04:00:47;6.28;;;4.22;;
30543;SDS011;43388;46.308;4.600;2023-08-01T04:03:13;9.20;;;4.75;;
30543;SDS011;43388;46.308;4.600;2023-08-01T04:05:39;6.32;;;4.28;;
30543;SDS011;43388;46.308;4.600;2023-08-01T04:08:05;6.20;;;4.30;;
30543;SDS011;43388;46.308;4.600;2023-08-01T04:10:31;9.73;;;4.93;;
30543;SDS011;43388;46.308;4.600;2023-08-01T04:12:57;5.47;;;4.50;;
30543;SDS011;43388;46.308;4.600;2023-08-01T04:15:23;5.15;;;4.63;;
30543;SDS011;43388;46.308;4.600;2023-08-01T04:17:49;7.38;;;5.00;;
30543;SDS011;43388;46.308;4.600;2023-08-01T04:20:15;8.10;;;4.88;;
30543;SDS011;43388;46.308;4.600;2023-08-01T04:22:41;6.00;;;4.30;;
30543;SDS011;43388;46.308;4.600;2023-08-01T04:25:07;4.78;;;4.28;;
30543;SDS011;43388;46.308;4.600;2023-08-01T04:27:33;6.60;;;4.90;;
30543;SDS011;43388;46.308;4.600;2023-08-01T04:30:00;8.45;;;4.90;;
30543;SDS011;43388;46.308;4.600;2023-08-01T04:32:26;5.95;;;4.57;;
30543;SDS011;43388;46.308;4.600;2023-08-01T04:34:52;7.53;;;4.97;;
30543;SDS011;43388;46.308;4.600;2023-08-01T04:37:18;7.07;;;4.68;;
30543;SDS011;43388;46.308;4.600;2023-08-01T04:39:47;7.53;;;5.00;;
30543;SDS011;43388;46.308;4.600;2023-08-01T04:42:13;5.93;;;4.30;;
30543;SDS011;43388;46.308;4.600;2023-08-01T04:44:39;8.02;;;4.95;;
30543;SDS011;43388;46.308;4.600;2023-08-01T04:47:05;5.35;;;4.78;;
30543;SDS011;43388;46.308;4.600;2023-08-01T04:49:31;7.30;;;5.28;;
30543;SDS011;43388;46.308;4.600;2023-08-01T04:51:57;7.50;;;4.65;;
30543;SDS011;43388;46.308;4.600;2023-08-01T04:54:23;10.52;;;5.22;;
30543;SDS011;43388;46.308;4.600;2023-08-01T04:56:49;6.90;;;5.05;;
30543;SDS011;43388;46.308;4.600;2023-08-01T04:59:15;6.70;;;4.70;;
30543;SDS011;43388;46.308;4.600;2023-08-01T05:01:41;6.78;;;5.18;;
30543;SDS011;43388;46.308;4.600;2023-08-01T05:04:07;8.38;;;4.35;;
30543;SDS011;43388;46.308;4.600;2023-08-01T05:06:33;8.65;;;4.97;;
30543;SDS011;43388;46.308;4.600;2023-08-01T05:08:59;6.07;;;4.05;;
30543;SDS011;43388;46.308;4.600;2023-08-01T05:11:25;7.55;;;4.18;;
30543;SDS011;43388;46.308;4.600;2023-08-01T05:13:51;5.57;;;4.20;;
30543;SDS011;43388;46.308;4.600;2023-08-01T05:16:17;7.05;;;3.90;;
30543;SDS011;43388;46.308;4.600;2023-08-01T05:18:44;5.60;;;3.75;;
30543;SDS011;43388;46.308;4.600;2023-08-01T05:21:09;4.93;;;3.70;;
30543;SDS011;43388;46.308;4.600;2023-08-01T05:23:35;6.07;;;4.25;;
30543;SDS011;43388;46.308;4.600;2023-08-01T05:26:01;5.25;;;4.13;;
30543;SDS011;43388;46.308;4.600;2023-08-01T05:28:28;4.57;;;3.75;;
30543;SDS011;43388;46.308;4.600;2023-08-01T05:30:54;4.35;;;3.78;;
30543;SDS011;43388;46.308;4.600;2023-08-01T05:33:20;4.63;;;3.97;;
30543;SDS011;43388;46.308;4.600;2023-08-01T05:35:46;3.67;;;3.35;;
30543;SDS011;43388;46.308;4.600;2023-08-01T05:38:12;4.40;;;4.00;;
30543;SDS011;43388;46.308;4.600;2023-08-01T05:40:38;4.60;;;3.22;;
30543;SDS011;43388;46.308;4.600;2023-08-01T05:43:04;3.65;;;3.35;;
30543;SDS011;43388;46.308;4.600;2023-08-01T05:45:33;4.38;;;3.70;;
30543;SDS011;43388;46.308;4.600;2023-08-01T05:47:59;4.28;;;3.60;;
30543;SDS011;43388;46.308;4.600;2023-08-01T05:50:25;6.15;;;3.50;;
30543;SDS011;43388;46.308;4.600;2023-08-01T05:52:51;3.97;;;3.40;;
30543;SDS011;43388;46.308;4.600;2023-08-01T05:55:17;3.60;;;3.30;;
30543;SDS011;43388;46.308;4.600;2023-08-01T05:57:43;4.35;;;3.30;;
30543;SDS011;43388;46.308;4.600;2023-08-01T06:00:09;3.22;;;2.88;;
30543;SDS011;43388;46.308;4.600;2023-08-01T06:02:36;3.00;;;2.80;;
30543;SDS011;43388;46.308;4.600;2023-08-01T06:05:02;3.45;;;3.00;;
30543;SDS011;43388;46.308;4.600;2023-08-01T06:07:28;8.05;;;2.83;;
30543;SDS011;43388;46.308;4.600;2023-08-01T06:09:54;4.53;;;2.70;;
30543;SDS011;43388;46.308;4.600;2023-08-01T06:12:20;3.90;;;2.92;;
30543;SDS011;43388;46.308;4.600;2023-08-01T06:14:47;3.88;;;2.38;;
30543;SDS011;43388;46.308;4.600;2023-08-01T06:17:13;4.20;;;2.60;;
30543;SDS011;43388;46.308;4.600;2023-08-01T06:19:39;6.35;;;2.70;;
30543;SDS011;43388;46.308;4.600;2023-08-01T06:22:05;19.38;;;2.78;;
30543;SDS011;43388;46.308;4.600;2023-08-01T06:24:31;5.57;;;2.83;;
30543;SDS011;43388;46.308;4.600;2023-08-01T06:26:57;4.22;;;2.78;;
30543;SDS011;43388;46.308;4.600;2023-08-01T06:29:23;4.03;;;2.63;;
30543;SDS011;43388;46.308;4.600;2023-08-01T06:31:50;2.85;;;2.55;;
30543;SDS011;43388;46.308;4.600;2023-08-01T06:34:16;2.67;;;2.10;;
30543;SDS011;43388;46.308;4.600;2023-08-01T06:36:42;2.30;;;2.10;;
30543;SDS011;43388;46.308;4.600;2023-08-01T06:39:08;2.75;;;2.47;;
30543;SDS011;43388;46.308;4.600;2023-08-01T06:41:34;2.95;;;2.65;;
30543;SDS011;43388;46.308;4.600;2023-08-01T06:44:01;3.40;;;2.97;;
30543;SDS011;43388;46.308;4.600;2023-08-01T06:46:27;3.00;;;2.67;;
30543;SDS011;43388;46.308;4.600;2023-08-01T06:48:53;3.83;;;2.78;;
30543;SDS011;43388;46.308;4.600;2023-08-01T06:51:19;2.47;;;2.15;;
30543;SDS011;43388;46.308;4.600;2023-08-01T06:53:45;4.43;;;2.50;;
30543;SDS011;43388;46.308;4.600;2023-08-01T06:56:11;3.63;;;2.80;;
30543;SDS011;43388;46.308;4.600;2023-08-01T06:58:37;3.35;;;2.47;;
30543;SDS011;43388;46.308;4.600;2023-08-01T07:01:03;3.38;;;3.08;;
30543;SDS011;43388;46.308;4.600;2023-08-01T07:03:29;5.78;;;2.83;;
30543;SDS011;43388;46.308;4.600;2023-08-01T07:05:55;5.18;;;2.80;;
30543;SDS011;43388;46.308;4.600;2023-08-01T07:08:21;3.90;;;2.30;;
30543;SDS011;43388;46.308;4.600;2023-08-01T07:10:48;2.90;;;2.55;;
30543;SDS011;43388;46.308;4.600;2023-08-01T07:13:14;3.83;;;2.65;;
30543;SDS011;43388;46.308;4.600;2023-08-01T07:15:41;3.90;;;2.60;;
30543;SDS011;43388;46.308;4.600;2023-08-01T07:18:07;3.70;;;2.53;;
30543;SDS011;43388;46.308;4.600;2023-08-01T07:20:33;3.53;;;2.97;;
30543;SDS011;43388;46.308;4.600;2023-08-01T07:22:59;3.28;;;2.53;;
30543;SDS011;43388;46.308;4.600;2023-08-01T07:25:25;4.50;;;2.55;;
30543;SDS011;43388;46.308;4.600;2023-08-01T07:27:51;2.63;;;2.42;;
30543;SDS011;43388;46.308;4.600;2023-08-01T07:30:17;2.85;;;2.40;;
30543;SDS011;43388;46.308;4.600;2023-08-01T07:32:43;2.50;;;2.30;;
30543;SDS011;43388;46.308;4.600;2023-08-01T07:35:09;2.65;;;2.35;;
30543;SDS011;43388;46.308;4.600;2023-08-01T07:37:35;4.35;;;2.60;;
30543;SDS011;43388;46.308;4.600;2023-08-01T07:40:03;3.47;;;2.50;;
30543;SDS011;43388;46.308;4.600;2023-08-01T07:42:29;4.68;;;2.63;;
30543;SDS011;43388;46.308;4.600;2023-08-01T07:44:55;2.60;;;2.40;;
30543;SDS011;43388;46.308;4.600;2023-08-01T07:47:21;3.55;;;2.50;;
30543;SDS011;43388;46.308;4.600;2023-08-01T07:49:49;3.35;;;2.00;;
30543;SDS011;43388;46.308;4.600;2023-08-01T07:52:15;2.85;;;2.50;;
30543;SDS011;43388;46.308;4.600;2023-08-01T07:54:41;3.75;;;2.13;;
30543;SDS011;43388;46.308;4.600;2023-08-01T07:57:07;3.20;;;2.03;;
30543;SDS011;43388;46.308;4.600;2023-08-01T07:59:33;2.28;;;2.08;;
30543;SDS011;43388;46.308;4.600;2023-08-01T08:01:59;2.58;;;2.38;;
30543;SDS011;43388;46.308;4.600;2023-08-01T08:04:25;2.35;;;2.10;;
30543;SDS011;43388;46.308;4.600;2023-08-01T08:06:51;2.13;;;1.92;;
30543;SDS011;43388;46.308;4.600;2023-08-01T08:09:19;2.00;;;1.80;;
30543;SDS011;43388;46.308;4.600;2023-08-01T08:11:47;2.30;;;1.65;;
30543;SDS011;43388;46.308;4.600;2023-08-01T08:14:15;4.78;;;1.90;;
30543;SDS011;43388;46.308;4.600;2023-08-01T08:16:42;2.13;;;1.60;;
30543;SDS011;43388;46.308;4.600;2023-08-01T08:19:08;2.22;;;1.70;;
30543;SDS011;43388;46.308;4.600;2023-08-01T08:21:34;2.47;;;1.77;;
30543;SDS011;43388;46.308;4.600;2023-08-01T08:24:00;1.50;;;1.40;;
30543;SDS011;43388;46.308;4.600;2023-08-01T08:26:26;1.42;;;1.33;;
30543;SDS011;43388;46.308;4.600;2023-08-01T08:28:52;1.40;;;1.30;;
30543;SDS011;43388;46.308;4.600;2023-08-01T08:31:18;2.10;;;1.70;;
30543;SDS011;43388;46.308;4.600;2023-08-01T08:33:44;1.65;;;1.55;;
30543;SDS011;43388;46.308;4.600;2023-08-01T08:36:10;1.33;;;1.23;;
30543;SDS011;43388;46.308;4.600;2023-08-01T08:38:36;3.22;;;1.30;;
30543;SDS011;43388;46.308;4.600;2023-08-01T08:41:07;1.50;;;1.40;;
30543;SDS011;43388;46.308;4.600;2023-08-01T08:43:34;1.67;;;1.40;;
30543;SDS011;43388;46.308;4.600;2023-08-01T08:46:00;1.52;;;1.42;;
30543;SDS011;43388;46.308;4.600;2023-08-01T08:48:26;1.55;;;1.45;;
30543;SDS011;43388;46.308;4.600;2023-08-01T08:50:54;1.60;;;1.48;;
30543;SDS011;43388;46.308;4.600;2023-08-01T08:53:22;1.55;;;1.45;;
30543;SDS011;43388;46.308;4.600;2023-08-01T08:55:48;1.75;;;1.30;;
30543;SDS011;43388;46.308;4.600;2023-08-01T08:58:15;1.30;;;1.20;;
30543;SDS011;43388;46.308;4.600;2023-08-01T09:00:41;2.03;;;1.33;;
30543;SDS011;43388;46.308;4.600;2023-08-01T09:03:08;1.85;;;1.13;;
30543;SDS011;43388;46.308;4.600;2023-08-01T09:05:35;1.20;;;1.15;;
30543;SDS011;43388;46.308;4.600;2023-08-01T09:08:06;1.98;;;1.02;;
30543;SDS011;43388;46.308;4.600;2023-08-01T09:10:33;3.50;;;1.30;;
30543;SDS011;43388;46.308;4.600;2023-08-01T09:13:00;1.38;;;1.23;;
30543;SDS011;43388;46.308;4.600;2023-08-01T09:15:26;1.30;;;1.20;;
30543;SDS011;43388;46.308;4.600;2023-08-01T09:17:54;1.40;;;1.30;;
30543;SDS011;43388;46.308;4.600;2023-08-01T09:20:28;1.38;;;1.02;;
30543;SDS011;43388;46.308;4.600;2023-08-01T09:22:54;2.72;;;1.40;;
30543;SDS011;43388;46.308;4.600;2023-08-01T09:25:30;1.42;;;1.33;;
30543;SDS011;43388;46.308;4.600;2023-08-01T09:27:56;1.27;;;1.05;;
30543;SDS011;43388;46.308;4.600;2023-08-01T09:30:22;1.75;;;1.38;;
30543;SDS011;43388;46.308;4.600;2023-08-01T09:32:54;1.40;;;1.30;;
30543;SDS011;43388;46.308;4.600;2023-08-01T09:35:21;1.60;;;1.38;;
30543;SDS011;43388;46.308;4.600;2023-08-01T09:37:47;1.23;;;1.13;;
30543;SDS011;43388;46.308;4.600;2023-08-01T09:40:14;1.55;;;1.25;;
30543;SDS011;43388;46.308;4.600;2023-08-01T09:42:40;3.28;;;1.45;;
30543;SDS011;43388;46.308;4.600;2023-08-01T09:45:16;1.35;;;1.27;;
30543;SDS011;43388;46.308;4.600;2023-08-01T09:47:43;1.60;;;1.50;;
30543;SDS011;43388;46.308;4.600;2023-08-01T09:50:09;1.23;;;1.13;;
30543;SDS011;43388;46.308;4.600;2023-08-01T09:52:36;1.50;;;1.40;;
30543;SDS011;43388;46.308;4.600;2023-08-01T09:55:02;3.60;;;1.23;;
30543;SDS011;43388;46.308;4.600;2023-08-01T09:57:29;1.30;;;1.20;;
30543;SDS011;43388;46.308;4.600;2023-08-01T09:59:56;2.25;;;1.15;;
30543;SDS011;43388;46.308;4.600;2023-08-01T10:02:23;3.53;;;1.20;;
30543;SDS011;43388;46.308;4.600;2023-08-01T10:04:50;1.30;;;1.20;;
30543;SDS011;43388;46.308;4.600;2023-08-01T10:07:20;2.58;;;1.42;;
30543;SDS011;43388;46.308;4.600;2023-08-01T10:09:49;3.45;;;0.93;;
30543;SDS011;43388;46.308;4.600;2023-08-01T10:12:17;1.15;;;1.15;;
30543;SDS011;43388;46.308;4.600;2023-08-01T10:14:43;1.25;;;1.15;;
30543;SDS011;43388;46.308;4.600;2023-08-01T10:17:10;1.38;;;1.17;;
30543;SDS011;43388;46.308;4.600;2023-08-01T10:19:36;1.30;;;1.20;;
30543;SDS011;43388;46.308;4.600;2023-08-01T10:22:04;0.95;;;0.93;;
30543;SDS011;43388;46.308;4.600;2023-08-01T10:24:31;2.95;;;1.00;;
30543;SDS011;43388;46.308;4.600;2023-08-01T10:27:08;0.82;;;0.82;;
30543;SDS011;43388;46.308;4.600;2023-08-01T10:29:35;1.80;;;1.00;;
30543;SDS011;43388;46.308;4.600;2023-08-01T10:32:01;0.82;;;0.82;;
30543;SDS011;43388;46.308;4.600;2023-08-01T10:34:27;0.90;;;0.90;;
30543;SDS011;43388;46.308;4.600;2023-08-01T10:36:54;1.83;;;1.17;;
30543;SDS011;43388;46.308;4.600;2023-08-01T10:39:21;1.00;;;1.00;;
30543;SDS011;43388;46.308;4.600;2023-08-01T10:41:55;3.63;;;1.02;;
30543;SDS011;43388;46.308;4.600;2023-08-01T10:44:22;3.08;;;0.93;;
30543;SDS011;43388;46.308;4.600;2023-08-01T10:46:58;3.30;;;0.82;;
30543;SDS011;43388;46.308;4.600;2023-08-01T10:52:00;2.63;;;0.80;;
30543;SDS011;43388;46.308;4.600;2023-08-01T10:54:26;1.48;;;0.85;;
30543;SDS011;43388;46.308;4.600;2023-08-01T10:56:53;0.70;;;0.70;;
30543;SDS011;43388;46.308;4.600;2023-08-01T10:59:19;1.02;;;0.85;;
30543;SDS011;43388;46.308;4.600;2023-08-01T11:01:47;0.90;;;0.90;;
30543;SDS011;43388;46.308;4.600;2023-08-01T11:04:17;1.42;;;1.00;;
30543;SDS011;43388;46.308;4.600;2023-08-01T11:06:44;0.88;;;0.80;;
30543;SDS011;43388;46.308;4.600;2023-08-01T11:09:23;0.90;;;0.90;;
30543;SDS011;43388;46.308;4.600;2023-08-01T11:11:50;1.60;;;1.13;;
30543;SDS011;43388;46.308;4.600;2023-08-01T11:14:19;1.55;;;1.27;;
30543;SDS011;43388;46.308;4.600;2023-08-01T11:16:45;1.48;;;1.38;;
30543;SDS011;43388;46.308;4.600;2023-08-01T11:19:19;2.35;;;1.15;;
30543;SDS011;43388;46.308;4.600;2023-08-01T11:21:45;1.40;;;1.30;;
30543;SDS011;43388;46.308;4.600;2023-08-01T11:24:11;1.38;;;1.30;;
30543;SDS011;43388;46.308;4.600;2023-08-01T11:26:44;1.25;;;1.15;;
30543;SDS011;43388;46.308;4.600;2023-08-01T11:29:10;1.60;;;1.30;;
30543;SDS011;43388;46.308;4.600;2023-08-01T11:31:37;1.63;;;1.52;;
30543;SDS011;43388;46.308;4.600;2023-08-01T11:34:03;3.40;;;1.63;;
30543;SDS011;43388;46.308;4.600;2023-08-01T11:36:30;2.55;;;1.38;;
30543;SDS011;43388;46.308;4.600;2023-08-01T11:38:59;1.67;;;1.55;;
30543;SDS011;43388;46.308;4.600;2023-08-01T11:41:26;3.35;;;1.42;;
30543;SDS011;43388;46.308;4.600;2023-08-01T11:43:52;1.80;;;1.70;;
30543;SDS011;43388;46.308;4.600;2023-08-01T11:46:22;1.52;;;1.33;;
30543;SDS011;43388;46.308;4.600;2023-08-01T11:48:48;1.75;;;1.65;;
30543;SDS011;43388;46.308;4.600;2023-08-01T11:51:17;2.55;;;1.50;;
30543;SDS011;43388;46.308;4.600;2023-08-01T11:53:43;1.92;;;1.77;;
30543;SDS011;43388;46.308;4.600;2023-08-01T11:56:19;2.22;;;1.40;;
30543;SDS011;43388;46.308;4.600;2023-08-01T11:58:45;1.50;;;1.40;;
30543;SDS011;43388;46.308;4.600;2023-08-01T12:01:11;1.42;;;1.33;;
30543;SDS011;43388;46.308;4.600;2023-08-01T12:03:45;3.97;;;1.75;;
30543;SDS011;43388;46.308;4.600;2023-08-01T12:06:11;4.70;;;1.60;;
30543;SDS011;43388;46.308;4.600;2023-08-01T12:08:38;1.90;;;1.77;;
30543;SDS011;43388;46.308;4.600;2023-08-01T12:11:04;2.38;;;1.85;;
30543;SDS011;43388;46.308;4.600;2023-08-01T12:13:31;2.17;;;1.67;;
30543;SDS011;43388;46.308;4.600;2023-08-01T12:15:57;1.60;;;1.50;;
30543;SDS011;43388;46.308;4.600;2023-08-01T12:18:23;3.60;;;2.05;;
30543;SDS011;43388;46.308;4.600;2023-08-01T12:20:50;1.92;;;1.55;;
30543;SDS011;43388;46.308;4.600;2023-08-01T12:23:16;2.10;;;1.58;;
30543;SDS011;43388;46.308;4.600;2023-08-01T12:25:42;1.52;;;1.42;;
30543;SDS011;43388;46.308;4.600;2023-08-01T12:28:09;3.40;;;1.42;;
30543;SDS011;43388;46.308;4.600;2023-08-01T12:30:36;3.47;;;1.77;;
30543;SDS011;43388;46.308;4.600;2023-08-01T12:33:05;2.03;;;1.40;;
30543;SDS011;43388;46.308;4.600;2023-08-01T12:35:31;2.03;;;1.83;;
30543;SDS011;43388;46.308;4.600;2023-08-01T12:37:57;2.28;;;1.73;;
30543;SDS011;43388;46.308;4.600;2023-08-01T12:40:23;2.90;;;1.70;;
30543;SDS011;43388;46.308;4.600;2023-08-01T12:42:49;1.85;;;1.70;;
30543;SDS011;43388;46.308;4.600;2023-08-01T12:45:15;1.98;;;1.63;;
30543;SDS011;43388;46.308;4.600;2023-08-01T12:47:41;1.67;;;1.58;;
30543;SDS011;43388;46.308;4.600;2023-08-01T12:50:07;2.10;;;1.52;;
30543;SDS011;43388;46.308;4.600;2023-08-01T12:52:34;2.15;;;1.60;;
30543;SDS011;43388;46.308;4.600;2023-08-01T12:55:00;1.88;;;1.60;;
30543;SDS011;43388;46.308;4.600;2023-08-01T12:57:26;1.67;;;1.58;;
30543;SDS011;43388;46.308;4.600;2023-08-01T12:59:52;3.67;;;1.80;;
30543;SDS011;43388;46.308;4.600;2023-08-01T13:02:18;1.65;;;1.55;;
30543;SDS011;43388;46.308;4.600;2023-08-01T13:04:44;1.45;;;1.35;;
30543;SDS011;43388;46.308;4.600;2023-08-01T13:07:10;2.33;;;1.40;;
30543;SDS011;43388;46.308;4.600;2023-08-01T13:09:36;2.15;;;1.35;;
30543;SDS011;43388;46.308;4.600;2023-08-01T13:12:02;3.90;;;1.73;;
30543;SDS011;43388;46.308;4.600;2023-08-01T13:14:29;1.90;;;1.63;;
30543;SDS011;43388;46.308;4.600;2023-08-01T13:16:55;1.85;;;1.55;;
30543;SDS011;43388;46.308;4.600;2023-08-01T13:19:21;1.98;;;1.27;;
30543;SDS011;43388;46.308;4.600;2023-08-01T13:21:46;2.05;;;1.55;;
30543;SDS011;43388;46.308;4.600;2023-08-01T13:24:12;1.95;;;1.55;;
30543;SDS011;43388;46.308;4.600;2023-08-01T13:26:38;4.65;;;1.33;;
30543;SDS011;43388;46.308;4.600;2023-08-01T13:29:04;3.47;;;1.70;;
30543;SDS011;43388;46.308;4.600;2023-08-01T13:31:30;1.60;;;1.50;;
30543;SDS011;43388;46.308;4.600;2023-08-01T13:33:57;9.45;;;6.63;;
30543;SDS011;43388;46.308;4.600;2023-08-01T13:36:23;6.85;;;6.18;;
30543;SDS011;43388;46.308;4.600;2023-08-01T13:38:49;2.83;;;2.60;;
30543;SDS011;43388;46.308;4.600;2023-08-01T13:41:16;3.85;;;3.55;;
30543;SDS011;43388;46.308;4.600;2023-08-01T13:43:42;2.25;;;1.80;;
30543;SDS011;43388;46.308;4.600;2023-08-01T13:46:15;4.05;;;1.42;;
30543;SDS011;43388;46.308;4.600;2023-08-01T13:48:41;1.88;;;1.50;;
30543;SDS011;43388;46.308;4.600;2023-08-01T13:51:07;3.58;;;1.90;;
30543;SDS011;43388;46.308;4.600;2023-08-01T13:53:34;1.50;;;1.40;;
30543;SDS011;43388;46.308;4.600;2023-08-01T13:56:04;1.60;;;1.50;;
30543;SDS011;43388;46.308;4.600;2023-08-01T13:58:30;1.88;;;1.77;;
30543;SDS011;43388;46.308;4.600;2023-08-01T14:01:00;1.85;;;1.70;;
30543;SDS011;43388;46.308;4.600;2023-08-01T14:03:27;3.67;;;1.80;;
30543;SDS011;43388;46.308;4.600;2023-08-01T14:05:52;2.83;;;1.55;;
30543;SDS011;43388;46.308;4.600;2023-08-01T14:08:19;3.00;;;1.50;;
30543;SDS011;43388;46.308;4.600;2023-08-01T14:10:45;1.58;;;1.48;;
30543;SDS011;43388;46.308;4.600;2023-08-01T14:13:11;2.40;;;1.50;;
30543;SDS011;43388;46.308;4.600;2023-08-01T14:15:37;1.60;;;1.50;;
30543;SDS011;43388;46.308;4.600;2023-08-01T14:18:03;3.20;;;1.58;;
30543;SDS011;43388;46.308;4.600;2023-08-01T14:20:29;1.95;;;1.73;;
30543;SDS011;43388;46.308;4.600;2023-08-01T14:22:55;3.00;;;1.33;;
30543;SDS011;43388;46.308;4.600;2023-08-01T14:25:21;1.90;;;1.40;;
30543;SDS011;43388;46.308;4.600;2023-08-01T14:27:47;3.55;;;1.92;;
30543;SDS011;43388;46.308;4.600;2023-08-01T14:30:13;5.45;;;2.00;;
30543;SDS011;43388;46.308;4.600;2023-08-01T14:32:39;1.60;;;1.50;;
30543;SDS011;43388;46.308;4.600;2023-08-01T14:35:05;1.77;;;1.63;;
30543;SDS011;43388;46.308;4.600;2023-08-01T14:37:32;1.80;;;1.70;;
30543;SDS011;43388;46.308;4.600;2023-08-01T14:39:58;2.28;;;2.10;;
30543;SDS011;43388;46.308;4.600;2023-08-01T14:42:24;4.50;;;1.80;;
30543;SDS011;43388;46.308;4.600;2023-08-01T14:44:53;2.95;;;1.63;;
30543;SDS011;43388;46.308;4.600;2023-08-01T14:47:19;4.25;;;1.75;;